KCIC/CIC METAR and TAF weather

Enter ICAO airport designator
Station Type Date Time Source
KCIC METAR 2021/04/18 01:52 UTC NOAA

KCIC 180152Z 32009KT 100SM SKC 28/M07 A3001


Station Type Date Time Source
KCIC Decoded METAR 2021/04/18 01:52 UTC NOAA

Chico Municipal , CA, United States (KCIC) 39-48N 121-51W
Apr 17, 2021 - 09:52 PM EDT / 2021.04.18 0152 UTC
Wind: from the NW (320 degrees) at 10 MPH (9 KT):0
Visibility: 100 mile(s):0
Sky conditions: clear
Temperature: 82 F (28 C)
Dew Point: 19 F (-7 C)
Relative Humidity: 9%
Pressure (altimeter): 30.01 in. Hg (1016 hPa)
ob: KCIC 180152Z 32009KT 100SM SKC 28/M07 A3001
cycle: 2

Station Type Date Time Source
KCIC TAF UTC NOAA

Error!

Example: see airport list